Time;durP1;ratioP1;P1;durP2;ratioP2;P2;SDS_P1;SDS_P2;PMS_P1;PMS_P2;Temp;Humidity;BMP_temperature;BMP_pressure;BME280_temperature;BME280_humidity;BME280_pressure;Samples;Min_cycle;Max_cycle;Signal;HPM_P1;HPM_P2
2022/03/07 00:01:17;;;;;;;8.25;3.85;;;4.10;62.40;;;;;;6282890;22;20011;-86
2022/03/07 00:03:43;;;;;;;6.55;3.83;;;4.10;62.00;;;;;;6282092;22;20521;-87
2022/03/07 00:06:10;;;;;;;6.38;3.90;;;4.10;61.90;;;;;;6282483;22;20015;-87
2022/03/07 00:08:35;;;;;;;6.95;3.75;;;4.10;61.90;;;;;;6282815;22;20015;-86
2022/03/07 00:11:02;;;;;;;5.43;4.13;;;4.10;61.90;;;;;;6318890;22;20015;-87
2022/03/07 00:13:27;;;;;;;6.43;4.40;;;4.10;61.90;;;;;;6316095;22;20019;-87
2022/03/07 00:15:53;;;;;;;5.70;3.67;;;4.00;61.80;;;;;;6309809;22;20343;-87
2022/03/07 00:18:19;;;;;;;6.95;4.22;;;4.00;61.80;;;;;;6309650;22;20011;-87
2022/03/07 00:20:44;;;;;;;7.85;4.65;;;4.00;61.80;;;;;;6281902;22;20015;-86
2022/03/07 00:23:11;;;;;;;6.90;3.97;;;4.00;61.80;;;;;;6309923;22;20065;-86
2022/03/07 00:25:38;;;;;;;8.52;4.07;;;3.90;61.70;;;;;;6309514;22;20037;-87
2022/03/07 00:28:04;;;;;;;5.45;3.88;;;3.90;61.70;;;;;;6281641;22;20436;-87
2022/03/07 00:30:30;;;;;;;6.78;4.07;;;3.90;61.70;;;;;;6282442;22;20501;-87
2022/03/07 00:32:55;;;;;;;8.00;4.20;;;3.90;61.80;;;;;;6282042;22;20015;-87
2022/03/07 00:35:21;;;;;;;5.95;3.95;;;3.90;61.80;;;;;;6309853;22;20022;-87
2022/03/07 00:37:47;;;;;;;5.60;4.07;;;3.80;61.80;;;;;;6282301;22;20439;-86
2022/03/07 00:40:12;;;;;;;6.50;4.40;;;3.80;61.80;;;;;;6281873;22;20518;-87
2022/03/07 00:42:38;;;;;;;9.32;4.72;;;3.80;61.80;;;;;;6309380;22;20324;-87
2022/03/07 00:45:07;;;;;;;6.13;3.92;;;3.80;61.90;;;;;;6309412;22;20053;-86
2022/03/07 00:47:34;;;;;;;9.15;4.90;;;3.80;61.90;;;;;;6281552;22;20022;-87
2022/03/07 00:50:01;;;;;;;6.40;4.32;;;3.80;61.90;;;;;;6309858;22;20022;-88
2022/03/07 00:52:26;;;;;;;6.30;4.18;;;3.70;61.80;;;;;;6308942;22;20026;-87
2022/03/07 00:54:52;;;;;;;4.80;3.88;;;3.70;61.80;;;;;;6281438;22;20016;-86
2022/03/07 00:57:18;;;;;;;8.82;4.80;;;3.70;61.90;;;;;;6308932;22;20015;-87
2022/03/07 00:59:43;;;;;;;7.30;3.63;;;3.70;61.90;;;;;;6309553;22;20057;-87
2022/03/07 01:02:10;;;;;;;7.07;4.07;;;3.60;61.90;;;;;;6309428;22;20011;-87
2022/03/07 01:04:36;;;;;;;6.60;3.90;;;3.60;61.90;;;;;;6309216;22;20058;-87
2022/03/07 01:07:02;;;;;;;6.20;4.05;;;3.60;62.00;;;;;;6281978;22;20015;-87
2022/03/07 01:09:27;;;;;;;7.07;4.07;;;3.60;62.00;;;;;;6309412;22;20018;-87
2022/03/07 01:11:53;;;;;;;5.30;3.53;;;3.60;62.00;;;;;;6309438;22;20474;-88
2022/03/07 01:14:19;;;;;;;7.05;4.03;;;3.50;62.00;;;;;;6281349;22;20019;-88
2022/03/07 01:16:45;;;;;;;5.55;3.47;;;3.50;62.50;;;;;;6309571;22;20011;-87
2022/03/07 01:19:10;;;;;;;6.32;3.97;;;3.50;62.20;;;;;;6308656;22;20015;-87
2022/03/07 01:21:38;;;;;;;5.88;3.83;;;3.50;62.20;;;;;;6308991;22;20023;-87
2022/03/07 01:24:04;;;;;;;8.45;4.20;;;3.40;62.20;;;;;;6308858;22;20015;-88
2022/03/07 01:26:30;;;;;;;6.20;3.60;;;3.40;62.10;;;;;;6309186;22;20117;-87
2022/03/07 01:28:56;;;;;;;5.60;3.38;;;3.40;62.10;;;;;;6309116;22;20051;-87
2022/03/07 01:31:21;;;;;;;7.10;4.05;;;3.40;62.20;;;;;;6309214;22;20018;-87
2022/03/07 01:33:47;;;;;;;8.63;4.15;;;3.30;62.20;;;;;;6282039;22;20015;-87
2022/03/07 01:36:13;;;;;;;5.10;3.53;;;3.30;62.30;;;;;;6308756;22;20034;-87
2022/03/07 01:38:38;;;;;;;6.43;3.70;;;3.30;62.30;;;;;;6309350;22;20066;-86
2022/03/07 01:41:04;;;;;;;6.03;3.72;;;3.30;62.30;;;;;;6308636;22;20019;-87
2022/03/07 01:43:30;;;;;;;5.93;3.60;;;3.30;62.70;;;;;;6309384;22;20050;-88
2022/03/07 01:45:56;;;;;;;7.72;4.15;;;3.30;62.30;;;;;;6280939;22;20019;-87
2022/03/07 01:48:22;;;;;;;6.32;3.97;;;3.20;62.30;;;;;;6280900;22;20018;-88
2022/03/07 01:50:48;;;;;;;7.10;4.10;;;3.20;62.30;;;;;;6308434;22;20019;-88
2022/03/07 01:53:15;;;;;;;6.13;3.80;;;3.20;62.30;;;;;;6281635;22;20011;-87
2022/03/07 01:55:40;;;;;;;7.78;4.60;;;3.20;62.40;;;;;;6308801;22;20061;-88
2022/03/07 01:58:06;;;;;;;7.30;4.80;;;3.20;62.40;;;;;;6309040;22;20015;-88
2022/03/07 02:00:32;;;;;;;8.32;4.72;;;3.10;62.40;;;;;;6309283;22;20019;-86
2022/03/07 02:03:16;;;;;;;9.15;5.28;;;3.10;62.40;;;;;;6309052;22;20015;-87
2022/03/07 02:05:43;;;;;;;8.53;4.83;;;3.10;62.50;;;;;;6281996;22;20015;-88
2022/03/07 02:08:09;;;;;;;6.90;5.43;;;3.10;62.40;;;;;;6309133;22;20022;-87
2022/03/07 02:10:36;;;;;;;8.90;4.87;;;3.00;62.40;;;;;;6281276;22;20023;-88
2022/03/07 02:13:10;;;;;;;9.17;4.93;;;3.00;62.80;;;;;;6308737;22;20473;-87
2022/03/07 02:15:35;;;;;;;7.40;5.10;;;3.00;62.50;;;;;;6281168;22;20019;-88
2022/03/07 02:18:07;;;;;;;8.07;5.20;;;3.00;62.50;;;;;;6309381;22;20011;-88
2022/03/07 02:20:33;;;;;;;9.43;5.82;;;3.00;62.50;;;;;;6308396;22;20364;-87
2022/03/07 02:22:59;;;;;;;8.45;5.20;;;2.90;62.50;;;;;;6309225;22;20015;-87
2022/03/07 02:25:25;;;;;;;7.53;5.03;;;2.90;62.50;;;;;;6308662;22;20027;-88
2022/03/07 02:27:51;;;;;;;7.40;5.10;;;2.90;62.50;;;;;;6281692;22;20016;-87
2022/03/07 02:30:17;;;;;;;7.33;4.97;;;2.90;62.60;;;;;;6281612;22;20374;-88
2022/03/07 02:32:43;;;;;;;7.77;5.27;;;2.90;62.70;;;;;;6309818;22;20019;-87
2022/03/07 02:35:13;;;;;;;8.70;5.00;;;2.90;62.70;;;;;;6334387;22;20011;-81
2022/03/07 02:37:39;;;;;;;8.30;5.97;;;2.80;62.70;;;;;;6308354;22;20005;-87
2022/03/07 02:40:05;;;;;;;7.70;5.23;;;2.80;62.70;;;;;;6317062;22;20015;-88
2022/03/07 02:42:30;;;;;;;7.27;4.93;;;2.80;63.10;;;;;;6281013;22;20018;-88
2022/03/07 02:44:56;;;;;;;8.23;5.23;;;2.80;62.70;;;;;;6281340;22;20110;-88
2022/03/07 02:47:23;;;;;;;8.33;5.23;;;2.80;62.70;;;;;;6282280;22;20015;-88
2022/03/07 02:49:49;;;;;;;7.93;5.00;;;2.80;62.80;;;;;;6309020;22;20026;-88
2022/03/07 02:52:15;;;;;;;6.97;4.13;;;2.70;62.70;;;;;;6309137;22;20047;-88
2022/03/07 02:54:40;;;;;;;8.57;5.00;;;2.70;62.70;;;;;;6308933;22;20023;-88
2022/03/07 02:57:07;;;;;;;7.07;4.50;;;2.70;62.70;;;;;;6309804;22;20014;-87
2022/03/07 02:59:33;;;;;;;7.87;4.70;;;2.70;62.70;;;;;;6310524;22;20476;-89
2022/03/07 03:01:59;;;;;;;8.30;4.67;;;2.70;62.80;;;;;;6309667;22;20015;-89
2022/03/07 03:04:25;;;;;;;5.60;3.97;;;2.70;62.80;;;;;;6309099;22;20450;-88
2022/03/07 03:06:50;;;;;;;5.70;4.23;;;2.70;62.80;;;;;;6312584;22;20084;-88
2022/03/07 03:09:16;;;;;;;6.20;4.13;;;2.60;62.70;;;;;;6312494;22;20492;-87
2022/03/07 03:11:42;;;;;;;5.37;3.60;;;2.70;62.90;;;;;;6285000;22;20015;-88
2022/03/07 03:14:07;;;;;;;7.80;4.20;;;2.60;62.80;;;;;;6326973;22;20019;-88
2022/03/07 03:16:33;;;;;;;6.33;3.83;;;2.60;62.90;;;;;;6328679;22;20043;-88
2022/03/07 03:18:59;;;;;;;5.57;4.20;;;2.60;62.90;;;;;;6312534;22;20018;-87
2022/03/07 03:21:25;;;;;;;6.37;3.80;;;2.60;62.90;;;;;;6312113;22;20431;-88
2022/03/07 03:23:51;;;;;;;7.23;3.60;;;2.50;62.90;;;;;;6312715;22;20016;-88
2022/03/07 03:26:17;;;;;;;5.97;4.23;;;2.50;62.90;;;;;;6312088;22;20015;-88
2022/03/07 03:28:42;;;;;;;5.40;3.50;;;2.50;62.90;;;;;;6284734;22;20015;-88
2022/03/07 03:31:11;;;;;;;6.30;4.20;;;2.50;62.90;;;;;;6313408;22;20015;-88
2022/03/07 03:33:37;;;;;;;5.20;3.87;;;2.60;63.00;;;;;;6312344;22;20049;-88
2022/03/07 03:36:04;;;;;;;5.90;3.57;;;2.50;62.90;;;;;;6312259;22;20369;-88
2022/03/07 03:38:30;;;;;;;5.40;3.70;;;2.50;62.90;;;;;;6284186;22;20011;-88
2022/03/07 03:40:55;;;;;;;8.10;4.10;;;2.50;62.90;;;;;;6311717;22;20023;-88
2022/03/07 03:43:21;;;;;;;5.40;3.53;;;2.50;62.90;;;;;;6284866;22;20030;-88
2022/03/07 03:45:47;;;;;;;6.20;3.53;;;2.40;62.90;;;;;;6312285;22;20019;-89
2022/03/07 03:48:13;;;;;;;5.20;3.63;;;2.40;62.90;;;;;;6284659;22;20008;-88
2022/03/07 03:50:38;;;;;;;6.00;3.53;;;2.40;62.80;;;;;;6284993;22;20377;-87
2022/03/07 03:53:04;;;;;;;6.23;3.77;;;2.40;62.90;;;;;;6284645;22;20455;-88
2022/03/07 03:55:30;;;;;;;5.67;3.60;;;2.40;62.90;;;;;;6309388;22;20029;-88
2022/03/07 03:57:56;;;;;;;6.70;3.83;;;2.30;62.80;;;;;;6311736;22;20051;-88
2022/03/07 04:00:23;;;;;;;6.30;3.93;;;2.30;62.80;;;;;;6284096;22;20019;-88
2022/03/07 04:02:50;;;;;;;5.57;3.73;;;2.30;62.80;;;;;;6312219;22;20018;-89
2022/03/07 04:05:16;;;;;;;4.83;3.63;;;2.30;62.80;;;;;;6312318;22;20011;-89
2022/03/07 04:07:43;;;;;;;5.47;3.93;;;2.30;62.80;;;;;;6284547;22;20019;-89
2022/03/07 04:10:10;;;;;;;5.03;3.57;;;2.30;62.90;;;;;;6311699;22;20069;-88
2022/03/07 04:12:36;;;;;;;7.90;4.37;;;2.30;62.90;;;;;;6284849;22;20016;-88
2022/03/07 04:15:03;;;;;;;5.10;3.80;;;2.30;62.90;;;;;;6284928;22;20015;-88
2022/03/07 04:17:28;;;;;;;4.50;3.47;;;2.20;62.90;;;;;;6312651;22;20062;-89
2022/03/07 04:19:54;;;;;;;6.47;3.63;;;2.20;62.90;;;;;;6323742;22;20046;-89
2022/03/07 04:22:20;;;;;;;6.23;3.70;;;2.20;62.80;;;;;;6296499;22;20045;-88
2022/03/07 04:24:45;;;;;;;4.87;3.27;;;2.20;62.80;;;;;;6297390;22;20023;-88
2022/03/07 04:27:11;;;;;;;5.23;3.90;;;2.20;62.80;;;;;;6311421;22;20435;-88
2022/03/07 04:29:37;;;;;;;6.20;4.40;;;2.10;62.80;;;;;;6311064;22;20012;-88
2022/03/07 04:32:03;;;;;;;5.50;3.37;;;2.10;62.80;;;;;;6311314;22;20447;-89
2022/03/07 04:38:09;;;;;;;6.53;3.67;;;2.10;62.70;;;;;;6310672;22;20026;-88
2022/03/07 04:40:35;;;;;;;5.87;3.50;;;2.10;62.70;;;;;;6309944;22;20015;-88
2022/03/07 04:43:01;;;;;;;4.07;3.00;;;2.00;62.60;;;;;;6283024;22;20441;-88
2022/03/07 04:45:27;;;;;;;5.13;3.53;;;2.00;62.70;;;;;;6310007;22;20026;-88
2022/03/07 04:51:33;;;;;;;6.20;3.43;;;2.00;62.70;;;;;;6309801;22;20045;-88
2022/03/07 04:53:59;;;;;;;5.03;3.10;;;1.90;62.60;;;;;;6310576;22;20045;-88
2022/03/07 04:56:24;;;;;;;5.20;2.90;;;1.90;62.70;;;;;;6282612;22;20049;-88
2022/03/07 04:58:50;;;;;;;5.10;3.77;;;1.90;62.80;;;;;;6282566;22;20343;-88
2022/03/07 05:01:16;;;;;;;7.63;4.47;;;1.90;62.80;;;;;;6282210;22;20026;-87
2022/03/07 05:03:41;;;;;;;6.63;4.07;;;1.90;62.80;;;;;;6309700;22;20007;-87
2022/03/07 05:06:08;;;;;;;7.07;3.87;;;1.80;62.80;;;;;;6309828;22;20435;-88
2022/03/07 05:08:35;;;;;;;6.20;4.17;;;1.80;62.90;;;;;;6282195;22;20057;-88
2022/03/07 05:11:01;;;;;;;7.63;4.73;;;1.80;62.90;;;;;;6309895;22;20016;-88
2022/03/07 05:13:26;;;;;;;8.97;4.57;;;1.80;63.00;;;;;;6282368;22;20026;-88
2022/03/07 05:15:52;;;;;;;7.83;5.10;;;1.80;63.10;;;;;;6309869;22;20439;-88
2022/03/07 05:18:18;;;;;;;7.43;4.37;;;1.80;63.10;;;;;;6281696;22;20015;-87
2022/03/07 05:20:43;;;;;;;7.53;5.23;;;1.80;63.10;;;;;;6281711;22;20016;-88
2022/03/07 05:23:09;;;;;;;8.33;4.77;;;1.80;63.20;;;;;;6309513;22;20305;-87
2022/03/07 05:25:35;;;;;;;9.03;5.60;;;1.70;63.10;;;;;;6255423;22;20060;-88
2022/03/07 05:28:01;;;;;;;8.67;5.57;;;1.70;63.20;;;;;;6309694;22;20022;-87
2022/03/07 05:30:26;;;;;;;7.93;4.93;;;1.70;63.30;;;;;;6282509;22;20011;-87
2022/03/07 05:32:53;;;;;;;10.17;5.57;;;1.70;63.30;;;;;;6282122;22;20138;-87
2022/03/07 05:35:56;;;;;;;9.97;5.70;;;1.70;63.30;;;;;;6309818;22;20019;-88
2022/03/07 05:38:22;;;;;;;8.47;5.77;;;1.70;63.40;;;;;;6309184;22;20422;-87
2022/03/07 05:40:48;;;;;;;9.60;6.53;;;1.70;63.40;;;;;;6309948;22;20046;-87
2022/03/07 05:43:13;;;;;;;9.77;6.07;;;1.70;63.50;;;;;;6282273;22;20050;-88
2022/03/07 05:45:39;;;;;;;10.63;6.40;;;1.70;63.50;;;;;;6282393;22;20069;-87
2022/03/07 05:48:05;;;;;;;9.77;6.50;;;1.70;63.60;;;;;;6281980;22;20034;-87
2022/03/07 05:50:30;;;;;;;11.17;6.60;;;1.70;63.60;;;;;;6282150;22;20011;-87
2022/03/07 05:52:56;;;;;;;10.47;6.07;;;1.70;63.60;;;;;;6309622;22;20043;-87
2022/03/07 05:55:22;;;;;;;11.23;6.67;;;1.60;63.60;;;;;;6309335;22;20094;-87
2022/03/07 05:57:47;;;;;;;9.63;6.50;;;1.60;63.60;;;;;;6282147;22;20070;-86
2022/03/07 06:00:13;;;;;;;8.87;5.60;;;1.60;63.60;;;;;;6282070;22;20015;-87
2022/03/07 06:02:39;;;;;;;8.43;5.63;;;1.60;63.70;;;;;;6282849;22;20019;-88
2022/03/07 06:05:06;;;;;;;9.37;6.60;;;1.60;63.70;;;;;;6282160;22;20504;-87
2022/03/07 06:07:32;;;;;;;10.40;6.33;;;1.70;63.70;;;;;;6309158;22;20022;-86
2022/03/07 06:09:57;;;;;;;9.83;6.60;;;1.60;63.60;;;;;;6280952;22;20097;-87
2022/03/07 06:12:26;;;;;;;12.80;7.20;;;1.60;63.70;;;;;;6310546;22;20026;-87
2022/03/07 06:14:53;;;;;;;9.70;6.00;;;1.60;63.60;;;;;;6310148;22;20339;-87
2022/03/07 06:17:21;;;;;;;10.57;6.63;;;1.60;63.60;;;;;;6285123;22;20034;-87
2022/03/07 06:19:47;;;;;;;10.73;6.33;;;1.60;63.60;;;;;;6313249;22;20019;-86
2022/03/07 06:22:12;;;;;;;11.40;6.97;;;1.60;63.60;;;;;;6314091;22;20018;-87
2022/03/07 06:24:38;;;;;;;11.43;6.43;;;1.60;63.60;;;;;;6312073;22;20301;-86
2022/03/07 06:27:03;;;;;;;11.47;5.97;;;1.60;63.60;;;;;;6293289;22;20015;-86
2022/03/07 06:29:29;;;;;;;10.93;6.40;;;1.60;63.70;;;;;;6292053;22;20018;-86
2022/03/07 06:31:55;;;;;;;11.63;7.00;;;1.60;63.70;;;;;;6315080;22;20347;-87
2022/03/07 06:34:21;;;;;;;10.80;6.60;;;1.60;63.80;;;;;;6281797;22;20034;-86
2022/03/07 06:36:47;;;;;;;8.40;6.10;;;1.60;63.90;;;;;;6282275;22;20027;-88
2022/03/07 06:39:12;;;;;;;9.33;5.93;;;1.60;63.90;;;;;;6281754;22;20015;-85
2022/03/07 06:41:38;;;;;;;8.70;6.40;;;1.60;64.00;;;;;;6256581;22;20019;-86
2022/03/07 06:44:04;;;;;;;12.37;6.43;;;1.60;64.00;;;;;;6281516;22;20012;-86
2022/03/07 06:46:30;;;;;;;11.87;6.90;;;1.60;64.00;;;;;;6309720;22;20015;-86
2022/03/07 06:48:56;;;;;;;10.10;6.23;;;1.60;64.10;;;;;;6281087;22;20506;-85
2022/03/07 06:51:21;;;;;;;12.47;6.90;;;1.70;64.10;;;;;;6310832;22;20011;-85
2022/03/07 06:53:47;;;;;;;10.87;6.27;;;1.70;64.20;;;;;;6287562;22;20019;-85
2022/03/07 06:56:14;;;;;;;8.83;6.23;;;1.70;64.20;;;;;;6286828;22;20015;-85
2022/03/07 06:58:41;;;;;;;10.27;6.40;;;1.70;64.30;;;;;;6287683;22;20026;-86
2022/03/07 07:01:06;;;;;;;12.90;7.07;;;1.70;64.40;;;;;;6287614;22;20025;-86
2022/03/07 07:04:28;;;;;;;8.67;5.93;;;1.70;64.50;;;;;;6315082;22;20546;-86
2022/03/07 07:06:54;;;;;;;11.70;6.17;;;1.70;64.60;;;;;;6283597;22;20047;-87
2022/03/07 07:09:19;;;;;;;13.57;7.67;;;1.70;64.60;;;;;;6281249;22;20439;-87
2022/03/07 07:11:45;;;;;;;13.70;6.80;;;1.70;64.60;;;;;;6308284;22;20011;-86
2022/03/07 07:14:11;;;;;;;13.83;7.37;;;1.80;64.90;;;;;;6280750;22;20407;-86
2022/03/07 07:16:36;;;;;;;13.67;6.23;;;1.80;65.00;;;;;;6281027;22;20020;-87
2022/03/07 07:19:02;;;;;;;14.03;7.73;;;1.80;65.20;;;;;;6280993;22;20011;-87
2022/03/07 07:21:28;;;;;;;21.63;8.10;;;1.80;65.30;;;;;;6281057;22;20015;-86
2022/03/07 07:23:53;;;;;;;16.87;7.40;;;2.30;65.70;;;;;;6280566;22;20012;-86
2022/03/07 07:26:19;;;;;;;14.33;6.40;;;1.90;65.50;;;;;;6281810;22;20039;-86
2022/03/07 07:28:46;;;;;;;13.70;6.50;;;1.90;65.70;;;;;;6280819;22;20019;-85
2022/03/07 07:31:11;;;;;;;8.97;5.47;;;1.90;66.00;;;;;;6281110;22;20012;-86
2022/03/07 07:33:37;;;;;;;9.73;5.70;;;1.90;66.40;;;;;;6280336;22;20145;-86
2022/03/07 07:36:03;;;;;;;8.27;5.20;;;2.00;66.50;;;;;;6281169;22;20011;-86
2022/03/07 07:38:29;;;;;;;7.97;5.03;;;2.10;66.50;;;;;;6280672;22;20062;-86
2022/03/07 07:40:55;;;;;;;7.07;5.37;;;2.10;66.50;;;;;;6281609;22;20019;-86
2022/03/07 07:43:21;;;;;;;9.63;5.20;;;2.10;66.50;;;;;;6308550;22;20090;-86
2022/03/07 07:45:47;;;;;;;9.13;6.30;;;2.20;66.80;;;;;;6254962;22;20043;-86
2022/03/07 07:48:12;;;;;;;10.00;6.27;;;2.30;66.90;;;;;;6308348;22;20015;-87
2022/03/07 07:50:38;;;;;;;6.97;5.00;;;2.40;67.00;;;;;;6255381;22;20011;-86
2022/03/07 07:53:04;;;;;;;11.30;6.17;;;2.50;67.10;;;;;;6256720;22;20050;-86
2022/03/07 07:55:29;;;;;;;9.23;6.10;;;2.50;67.30;;;;;;6256987;22;20431;-86
2022/03/07 07:57:55;;;;;;;8.80;6.40;;;2.70;67.50;;;;;;6282688;22;20019;-85
2022/03/07 08:00:21;;;;;;;9.10;6.47;;;2.80;67.50;;;;;;6282479;22;20099;-86
2022/03/07 08:02:47;;;;;;;13.80;7.13;;;2.90;67.60;;;;;;6282503;22;20015;-86
2022/03/07 08:05:14;;;;;;;14.80;8.67;;;3.00;67.70;;;;;;6282474;22;20470;-86
2022/03/07 08:07:41;;;;;;;12.20;8.63;;;3.10;68.00;;;;;;6282659;22;20015;-86
2022/03/07 08:10:08;;;;;;;12.50;8.52;;;3.30;68.40;;;;;;6309281;22;20415;-85
2022/03/07 08:12:33;;;;;;;13.13;10.20;;;3.50;68.60;;;;;;6255198;22;20447;-86
2022/03/07 08:14:59;;;;;;;13.10;11.02;;;3.70;68.40;;;;;;6282402;22;20045;-85
2022/03/07 08:17:25;;;;;;;12.43;8.70;;;3.90;68.40;;;;;;6310781;22;20427;-86
2022/03/07 08:19:51;;;;;;;11.80;8.40;;;4.10;68.70;;;;;;6310116;22;20376;-86
2022/03/07 08:22:16;;;;;;;10.55;8.40;;;4.50;68.80;;;;;;6281658;22;20011;-85
2022/03/07 08:24:43;;;;;;;9.40;7.70;;;4.50;68.80;;;;;;6282061;22;20153;-84
2022/03/07 08:27:08;;;;;;;9.60;7.65;;;4.80;68.70;;;;;;6282261;22;20019;-85
2022/03/07 08:29:34;;;;;;;8.88;6.68;;;5.00;68.50;;;;;;6281685;22;20397;-85
2022/03/07 08:32:00;;;;;;;11.70;6.88;;;5.30;68.30;;;;;;6310124;22;20089;-84
2022/03/07 08:34:25;;;;;;;9.00;6.43;;;5.70;68.10;;;;;;6281121;22;20019;-85
2022/03/07 08:36:51;;;;;;;10.15;6.82;;;6.20;67.50;;;;;;6282006;22;20052;-86
2022/03/07 08:39:17;;;;;;;9.45;6.43;;;6.40;66.70;;;;;;6281877;22;20335;-85
2022/03/07 08:41:42;;;;;;;9.10;6.15;;;6.90;66.20;;;;;;6308331;22;20023;-85
2022/03/07 08:44:08;;;;;;;9.18;5.85;;;7.20;65.50;;;;;;6255443;22;20018;-86
2022/03/07 08:46:33;;;;;;;8.32;5.95;;;7.60;64.90;;;;;;6308387;22;20011;-86
2022/03/07 08:48:59;;;;;;;8.88;5.18;;;8.00;64.00;;;;;;6309685;22;20011;-86
2022/03/07 08:51:25;;;;;;;7.78;4.90;;;8.30;63.20;;;;;;6281801;22;20019;-85
2022/03/07 08:53:51;;;;;;;8.35;4.53;;;8.80;62.00;;;;;;6309691;22;20047;-85
2022/03/07 08:56:17;;;;;;;6.05;4.43;;;8.90;61.00;;;;;;6255951;22;20280;-84
2022/03/07 08:58:42;;;;;;;7.85;5.03;;;9.30;59.70;;;;;;6309049;22;20510;-84
2022/03/07 09:01:09;;;;;;;8.32;4.40;;;9.50;59.10;;;;;;6307409;22;20111;-84
2022/03/07 09:03:35;;;;;;;5.65;4.07;;;10.00;58.70;;;;;;6280960;22;20090;-85
2022/03/07 09:06:01;;;;;;;6.40;4.00;;;10.10;57.90;;;;;;6309027;22;20489;-85
2022/03/07 09:08:27;;;;;;;7.75;4.07;;;10.30;57.50;;;;;;6281928;22;20058;-85
2022/03/07 09:10:52;;;;;;;9.07;3.90;;;10.60;56.60;;;;;;6308992;22;20109;-84
2022/03/07 09:13:18;;;;;;;4.45;3.50;;;11.00;56.20;;;;;;6281491;22;20442;-84
2022/03/07 09:15:45;;;;;;;6.70;3.92;;;11.00;55.40;;;;;;6282479;22;20093;-87
2022/03/07 09:18:12;;;;;;;6.22;3.83;;;11.20;54.40;;;;;;6282056;22;20446;-85
2022/03/07 09:20:39;;;;;;;5.40;3.38;;;11.40;54.70;;;;;;6309138;22;20050;-85
2022/03/07 09:23:05;;;;;;;7.47;4.18;;;11.50;53.40;;;;;;6282351;22;20396;-85
2022/03/07 09:25:31;;;;;;;6.65;4.47;;;11.70;52.80;;;;;;6256095;22;20015;-84
2022/03/07 09:27:57;;;;;;;7.65;4.93;;;11.80;52.40;;;;;;6308957;22;20430;-84
2022/03/07 09:30:23;;;;;;;9.32;6.07;;;12.00;51.70;;;;;;6281831;22;20011;-84
2022/03/07 09:32:49;;;;;;;12.43;8.43;;;12.10;51.10;;;;;;6309839;22;20079;-85
2022/03/07 09:35:16;;;;;;;11.90;7.70;;;12.10;50.00;;;;;;6309155;22;20065;-84
2022/03/07 09:37:41;;;;;;;11.20;7.53;;;12.50;50.90;;;;;;6309063;22;20019;-84
2022/03/07 09:40:08;;;;;;;12.68;8.57;;;12.30;50.10;;;;;;6308612;22;20023;-83
2022/03/07 09:42:34;;;;;;;12.68;8.10;;;12.20;49.50;;;;;;6281278;22;20474;-84
2022/03/07 09:44:59;;;;;;;11.00;7.95;;;12.30;49.50;;;;;;6309073;22;20015;-85
2022/03/07 09:47:27;;;;;;;10.55;7.95;;;12.30;49.30;;;;;;6309067;22;20015;-84
2022/03/07 09:49:52;;;;;;;6.53;3.40;;;12.30;49.00;;;;;;6309205;22;20003;-85
2022/03/07 09:52:18;;;;;;;4.45;3.25;;;12.30;48.60;;;;;;6309428;22;20050;-85
2022/03/07 09:54:44;;;;;;;6.85;2.80;;;12.30;48.50;;;;;;6309768;22;20014;-85
2022/03/07 09:57:10;;;;;;;3.78;2.78;;;12.20;47.60;;;;;;6281045;22;20055;-85
2022/03/07 09:59:36;;;;;;;5.20;2.92;;;12.10;48.20;;;;;;6281412;22;20054;-85
2022/03/07 10:02:12;;;;;;;4.70;3.10;;;12.00;47.90;;;;;;6281071;22;20466;-85
2022/03/07 10:04:44;;;;;;;6.50;3.30;;;11.80;48.00;;;;;;6309549;22;20019;-84
2022/03/07 10:07:10;;;;;;;10.13;3.53;;;11.70;48.20;;;;;;6280823;22;20015;-85
2022/03/07 10:09:36;;;;;;;6.03;3.13;;;11.60;48.80;;;;;;6255976;22;20019;-85
2022/03/07 10:12:05;;;;;;;5.60;3.05;;;11.50;49.00;;;;;;6281327;22;20336;-84
2022/03/07 10:14:31;;;;;;;5.00;2.67;;;11.50;49.60;;;;;;6280191;22;20023;-86
2022/03/07 10:16:58;;;;;;;6.22;2.95;;;11.50;49.50;;;;;;6281365;22;20019;-85
2022/03/07 10:19:23;;;;;;;5.07;2.72;;;11.60;49.30;;;;;;6309347;22;20065;-85
2022/03/07 10:21:51;;;;;;;7.53;2.70;;;11.60;49.00;;;;;;6309503;22;20093;-84
2022/03/07 10:24:29;;;;;;;4.82;2.58;;;11.50;48.70;;;;;;6308843;22;20370;-84
2022/03/07 10:26:55;;;;;;;6.43;3.20;;;11.40;48.50;;;;;;6309437;22;20023;-84
2022/03/07 10:29:20;;;;;;;3.20;2.40;;;11.40;48.90;;;;;;6281764;22;20022;-84
2022/03/07 10:31:47;;;;;;;3.55;2.40;;;11.30;48.00;;;;;;6309069;22;20022;-84
2022/03/07 10:34:13;;;;;;;5.60;3.22;;;11.20;47.90;;;;;;6309491;22;20061;-84
2022/03/07 10:36:41;;;;;;;4.50;2.72;;;11.20;48.40;;;;;;6309350;22;20011;-84
2022/03/07 10:39:11;;;;;;;5.22;3.00;;;11.00;48.50;;;;;;6281843;22;20015;-84
2022/03/07 10:41:42;;;;;;;4.57;3.03;;;11.00;48.60;;;;;;6280881;22;20019;-84
2022/03/07 10:44:11;;;;;;;4.25;3.05;;;10.90;48.90;;;;;;6281566;22;20022;-85
2022/03/07 10:46:38;;;;;;;5.65;2.85;;;10.80;49.40;;;;;;6308947;22;20015;-84
2022/03/07 10:49:07;;;;;;;7.47;3.10;;;10.90;49.10;;;;;;6281180;22;20019;-84
2022/03/07 10:51:32;;;;;;;7.05;3.17;;;10.80;49.20;;;;;;6309176;22;20439;-84
2022/03/07 10:54:10;;;;;;;4.80;2.90;;;10.80;49.70;;;;;;6281342;22;20102;-85
2022/03/07 10:56:48;;;;;;;6.53;3.03;;;10.90;50.00;;;;;;6281507;22;20007;-84
2022/03/07 10:59:25;;;;;;;4.57;3.30;;;10.90;49.90;;;;;;6280736;22;20015;-84
2022/03/07 11:01:58;;;;;;;6.50;3.30;;;11.00;50.20;;;;;;6308718;22;20015;-84
2022/03/07 11:04:24;;;;;;;5.72;3.33;;;11.10;49.90;;;;;;6308450;22;20007;-84
2022/03/07 11:06:49;;;;;;;8.80;3.90;;;11.00;50.60;;;;;;6281274;22;20020;-83
2022/03/07 11:09:15;;;;;;;6.15;3.10;;;11.10;49.80;;;;;;6281545;22;20065;-84
2022/03/07 11:11:41;;;;;;;6.75;3.47;;;11.00;50.00;;;;;;6314504;22;20058;-83
2022/03/07 11:14:08;;;;;;;7.70;3.60;;;11.10;50.00;;;;;;6289247;22;20417;-84
2022/03/07 11:16:35;;;;;;;4.95;3.00;;;11.10;49.80;;;;;;6309690;22;20128;-84
2022/03/07 11:19:01;;;;;;;4.43;3.03;;;11.00;49.80;;;;;;6281877;22;20368;-84
2022/03/07 11:21:29;;;;;;;5.22;3.10;;;11.00;49.40;;;;;;6309228;22;20023;-87
2022/03/07 11:23:56;;;;;;;5.78;3.20;;;11.00;49.90;;;;;;6309441;22;20447;-87
2022/03/07 11:26:23;;;;;;;6.22;3.00;;;11.00;49.30;;;;;;6310789;22;20019;-87
2022/03/07 11:28:52;;;;;;;3.05;2.28;;;10.90;49.00;;;;;;6311878;22;20011;-87
2022/03/07 11:31:22;;;;;;;4.05;2.50;;;10.80;48.10;;;;;;6284253;22;20095;-87
2022/03/07 11:33:53;;;;;;;7.40;2.35;;;10.70;47.80;;;;;;6311614;22;20026;-87
2022/03/07 11:36:21;;;;;;;7.05;2.67;;;10.50;46.90;;;;;;6284019;22;20061;-88
2022/03/07 11:38:57;;;;;;;5.40;2.42;;;10.30;46.80;;;;;;6311811;22;20094;-87
2022/03/07 11:41:27;;;;;;;5.38;2.78;;;10.10;46.70;;;;;;6311295;22;20064;-88
2022/03/07 11:44:01;;;;;;;3.80;2.40;;;10.00;47.70;;;;;;6311584;22;20056;-88
2022/03/07 11:46:30;;;;;;;;;;;9.80;48.00;;;;;;6283673;22;20023;-87
2022/03/07 11:48:56;;;;;;;6.40;2.50;;;9.60;49.10;;;;;;6283629;22;19922;-87
2022/03/07 11:51:41;;;;;;;3.90;2.70;;;9.60;49.50;;;;;;6283955;22;20012;-87
2022/03/07 11:54:19;;;;;;;5.50;2.63;;;9.60;50.50;;;;;;6283897;22;20011;-88
2022/03/07 11:56:44;;;;;;;7.40;3.10;;;9.60;50.50;;;;;;6284249;22;20097;-87
2022/03/07 11:59:11;;;;;;;3.97;2.40;;;9.60;49.70;;;;;;6311172;22;20419;-87
2022/03/07 12:01:37;;;;;;;5.70;3.22;;;9.60;49.50;;;;;;6284148;22;20015;-88
2022/03/07 12:07:26;;;;;;;3.85;2.60;;;9.50;49.80;;;;;;6311009;22;20013;-87
2022/03/07 12:09:52;;;;;;;7.07;3.28;;;9.60;50.40;;;;;;6311206;22;20019;-88
2022/03/07 12:12:20;;;;;;;4.70;2.30;;;9.50;51.00;;;;;;6284205;22;20486;-88
2022/03/07 12:14:47;;;;;;;5.72;2.65;;;9.60;51.00;;;;;;6283723;22;20023;-88
2022/03/07 12:17:23;;;;;;;4.45;2.58;;;9.70;51.70;;;;;;6311873;22;20056;-88
2022/03/07 12:19:56;;;;;;;5.03;2.60;;;9.60;51.10;;;;;;6286239;22;20439;-88
2022/03/07 12:22:25;;;;;;;3.23;1.80;;;9.60;50.90;;;;;;6315153;22;20019;-88
2022/03/07 12:24:53;;;;;;;5.40;2.33;;;9.60;49.10;;;;;;6316841;22;20250;-90
2022/03/07 12:27:19;;;;;;;5.38;2.30;;;9.50;49.20;;;;;;6287403;22;20019;-88
2022/03/07 12:29:46;;;;;;;5.22;2.50;;;9.50;49.40;;;;;;6284117;22;20520;-88
2022/03/07 12:32:12;;;;;;;6.28;2.20;;;9.40;49.50;;;;;;6284224;22;20090;-88
2022/03/07 12:34:40;;;;;;;5.97;2.00;;;9.40;49.30;;;;;;6283476;22;20070;-88
2022/03/07 12:37:08;;;;;;;4.93;2.15;;;9.30;49.90;;;;;;6283869;22;20352;-88
2022/03/07 12:39:57;;;;;;;4.18;2.30;;;9.20;49.90;;;;;;6311006;22;20011;-87
2022/03/07 12:42:32;;;;;;;3.92;2.35;;;9.20;50.10;;;;;;6284289;22;20007;-88
2022/03/07 12:45:00;;;;;;;4.50;1.95;;;9.10;49.30;;;;;;6283773;22;20020;-88
2022/03/07 12:47:36;;;;;;;3.95;1.85;;;9.10;49.10;;;;;;6284104;22;20007;-89
2022/03/07 12:50:05;;;;;;;3.50;1.80;;;9.00;49.60;;;;;;6310958;22;20023;-88
2022/03/07 12:52:33;;;;;;;3.38;2.40;;;8.90;49.50;;;;;;6284098;22;20011;-88
2022/03/07 12:55:00;;;;;;;4.90;2.10;;;8.90;49.20;;;;;;6311815;22;20012;-88
2022/03/07 12:57:27;;;;;;;2.92;1.90;;;8.90;48.90;;;;;;6311916;22;20022;-88
2022/03/07 12:59:58;;;;;;;2.50;1.70;;;8.80;48.50;;;;;;6283850;22;20369;-88
2022/03/07 13:02:32;;;;;;;3.55;1.50;;;8.80;49.10;;;;;;6283981;22;20053;-89